Time;durP1;ratioP1;P1;durP2;ratioP2;P2;SDS_P1;SDS_P2;PMS_P1;PMS_P2;Temp;Humidity;BMP_temperature;BMP_pressure;BME280_temperature;BME280_humidity;BME280_pressure;Samples;Min_cycle;Max_cycle;Signal;HPM_P1;HPM_P2
2021/06/17 00:00:26;;;;;;;11.82;5.65;;;;;;;;;;4878164;29;20040;-64
2021/06/17 00:02:54;;;;;;;11.20;6.22;;;;;;;;;;4877583;29;20029;-64
2021/06/17 00:05:21;;;;;;;8.25;5.30;;;;;;;;;;4877930;29;20088;-65
2021/06/17 00:07:47;;;;;;;10.10;4.90;;;;;;;;;;4878105;29;20029;-65
2021/06/17 00:10:15;;;;;;;14.00;5.45;;;;;;;;;;4877673;29;20025;-66
2021/06/17 00:12:41;;;;;;;13.60;5.32;;;;;;;;;;4877802;29;20029;-65
2021/06/17 00:15:09;;;;;;;12.45;5.35;;;;;;;;;;4877959;29;20025;-64
2021/06/17 00:17:35;;;;;;;6.90;4.88;;;;;;;;;;4877615;29;20959;-64
2021/06/17 00:20:01;;;;;;;12.88;5.63;;;;;;;;;;4877102;29;20025;-65
2021/06/17 00:22:27;;;;;;;9.63;5.45;;;;;;;;;;4877620;29;20033;-66
2021/06/17 00:24:53;;;;;;;10.18;5.65;;;;;;;;;;4877706;29;20081;-63
2021/06/17 00:27:19;;;;;;;11.90;5.47;;;;;;;;;;4877590;29;20533;-63
2021/06/17 00:29:46;;;;;;;9.63;4.85;;;;;;;;;;4877583;29;20025;-63
2021/06/17 00:32:12;;;;;;;12.10;5.32;;;;;;;;;;4877670;29;20029;-64
2021/06/17 00:34:38;;;;;;;9.98;5.20;;;;;;;;;;4877202;29;20033;-64
2021/06/17 00:37:04;;;;;;;10.05;5.15;;;;;;;;;;4877578;29;20033;-64
2021/06/17 00:39:30;;;;;;;8.95;4.93;;;;;;;;;;4877361;29;20025;-64
2021/06/17 00:41:56;;;;;;;11.10;5.38;;;;;;;;;;4877640;29;20033;-65
2021/06/17 00:44:22;;;;;;;8.77;4.95;;;;;;;;;;4877778;29;20032;-65
2021/06/17 00:46:48;;;;;;;10.07;5.47;;;;;;;;;;4877229;29;20049;-65
2021/06/17 00:49:14;;;;;;;9.77;5.57;;;;;;;;;;4877428;29;20062;-63
2021/06/17 00:51:40;;;;;;;10.48;5.38;;;;;;;;;;4877680;29;20041;-64
2021/06/17 00:54:06;;;;;;;11.23;5.65;;;;;;;;;;4877259;29;20079;-63
2021/06/17 00:56:32;;;;;;;12.75;5.35;;;;;;;;;;4877607;29;20029;-65
2021/06/17 00:58:58;;;;;;;9.18;5.15;;;;;;;;;;4877121;29;20071;-64
2021/06/17 01:01:24;;;;;;;9.23;5.00;;;;;;;;;;4877560;29;20025;-64
2021/06/17 01:03:51;;;;;;;9.48;5.00;;;;;;;;;;4860445;29;20029;-64
2021/06/17 01:06:17;;;;;;;7.63;4.97;;;;;;;;;;4877450;29;20124;-64
2021/06/17 01:09:02;;;;;;;9.45;5.20;;;;;;;;;;4877685;29;20037;-63
2021/06/17 01:11:46;;;;;;;10.73;5.53;;;;;;;;;;4877329;29;20872;-65
2021/06/17 01:14:27;;;;;;;6.72;4.68;;;;;;;;;;4876830;29;20064;-64
2021/06/17 01:17:04;;;;;;;11.85;5.40;;;;;;;;;;4877293;29;20083;-64
2021/06/17 01:19:30;;;;;;;8.77;5.05;;;;;;;;;;4877237;29;20040;-63
2021/06/17 01:22:08;;;;;;;10.98;5.25;;;;;;;;;;4876950;29;20040;-65
2021/06/17 01:24:34;;;;;;;11.18;5.28;;;;;;;;;;4860353;29;20041;-64
2021/06/17 01:27:19;;;;;;;8.63;5.60;;;;;;;;;;4877203;29;20493;-64
2021/06/17 01:29:45;;;;;;;8.88;5.68;;;;;;;;;;4877202;29;20033;-64
2021/06/17 01:32:12;;;;;;;9.52;5.10;;;;;;;;;;4879404;29;20032;-63
2021/06/17 01:34:39;;;;;;;7.57;4.90;;;;;;;;;;4880667;29;20068;-64
2021/06/17 01:37:08;;;;;;;10.15;4.97;;;;;;;;;;4880817;29;20039;-65
2021/06/17 01:39:37;;;;;;;10.52;5.22;;;;;;;;;;4880615;29;20477;-66
2021/06/17 01:42:04;;;;;;;10.90;6.20;;;;;;;;;;4880612;29;20474;-63
2021/06/17 01:44:30;;;;;;;11.00;5.88;;;;;;;;;;4880391;29;20098;-65
2021/06/17 01:46:58;;;;;;;12.05;5.60;;;;;;;;;;4879751;29;20061;-66
2021/06/17 01:49:24;;;;;;;9.00;5.47;;;;;;;;;;4880567;29;20379;-66
2021/06/17 01:51:51;;;;;;;8.98;5.25;;;;;;;;;;4880269;29;20521;-66
2021/06/17 01:54:21;;;;;;;10.43;5.63;;;;;;;;;;4880407;29;20044;-63
2021/06/17 01:56:50;;;;;;;11.57;5.68;;;;;;;;;;4880482;29;20549;-66
2021/06/17 01:59:18;;;;;;;10.35;5.57;;;;;;;;;;4880247;29;20623;-63
2021/06/17 02:01:45;;;;;;;9.57;5.82;;;;;;;;;;4881365;29;20411;-65
2021/06/17 02:04:11;;;;;;;9.32;5.35;;;;;;;;;;4881340;29;20381;-64
2021/06/17 02:06:38;;;;;;;8.18;5.63;;;;;;;;;;4879878;29;20088;-64
2021/06/17 02:09:05;;;;;;;9.75;5.78;;;;;;;;;;4880243;29;20040;-65
2021/06/17 02:11:32;;;;;;;9.82;5.90;;;;;;;;;;4880221;29;20032;-62
2021/06/17 02:13:58;;;;;;;8.98;5.57;;;;;;;;;;4880343;29;20032;-65
2021/06/17 02:16:25;;;;;;;13.18;6.03;;;;;;;;;;4880001;29;20025;-65
2021/06/17 02:18:53;;;;;;;7.15;5.50;;;;;;;;;;4880160;29;20029;-65
2021/06/17 02:21:19;;;;;;;11.82;5.93;;;;;;;;;;4879976;29;20045;-65
2021/06/17 02:23:48;;;;;;;8.82;5.95;;;;;;;;;;4879869;29;20628;-63
2021/06/17 02:26:14;;;;;;;13.68;5.80;;;;;;;;;;4879920;29;20041;-65
2021/06/17 02:28:45;;;;;;;12.13;6.28;;;;;;;;;;4879589;29;20404;-65
2021/06/17 02:31:13;;;;;;;10.18;5.45;;;;;;;;;;4863094;29;20033;-63
2021/06/17 02:33:39;;;;;;;9.68;5.95;;;;;;;;;;4879559;29;20089;-63
2021/06/17 02:36:06;;;;;;;9.00;5.57;;;;;;;;;;4879825;29;20065;-63
2021/06/17 02:38:36;;;;;;;13.52;5.30;;;;;;;;;;4879284;29;20478;-65
2021/06/17 02:41:04;;;;;;;10.20;5.82;;;;;;;;;;4879192;29;20041;-65
2021/06/17 02:43:33;;;;;;;11.60;5.65;;;;;;;;;;4878576;29;20025;-65
2021/06/17 02:45:59;;;;;;;9.75;6.22;;;;;;;;;;4879270;29;20033;-65
2021/06/17 02:48:25;;;;;;;10.63;5.93;;;;;;;;;;4879811;29;20385;-64
2021/06/17 02:50:51;;;;;;;10.80;5.70;;;;;;;;;;4878888;29;20438;-66
2021/06/17 02:53:17;;;;;;;11.32;5.80;;;;;;;;;;4879274;29;20025;-64
2021/06/17 02:55:43;;;;;;;13.23;6.00;;;;;;;;;;4862292;29;20035;-63
2021/06/17 02:58:28;;;;;;;8.23;5.60;;;;;;;;;;4879154;29;20033;-64
2021/06/17 03:00:58;;;;;;;10.25;5.90;;;;;;;;;;4879199;29;20029;-65
2021/06/17 03:03:34;;;;;;;10.93;5.68;;;;;;;;;;4878889;29;20037;-62
2021/06/17 03:06:09;;;;;;;11.10;5.88;;;;;;;;;;4879204;29;20057;-64
2021/06/17 03:08:41;;;;;;;14.10;5.93;;;;;;;;;;4879178;29;20033;-65
2021/06/17 03:11:10;;;;;;;8.38;5.60;;;;;;;;;;4878765;29;20036;-64
2021/06/17 03:13:37;;;;;;;13.63;7.38;;;;;;;;;;4878694;29;20044;-65
2021/06/17 03:16:04;;;;;;;10.82;6.15;;;;;;;;;;4878618;29;20124;-65
2021/06/17 03:18:32;;;;;;;14.02;6.57;;;;;;;;;;4878924;29;20385;-65
2021/06/17 03:20:59;;;;;;;14.13;6.57;;;;;;;;;;4878813;29;20482;-64
2021/06/17 03:23:26;;;;;;;9.13;5.72;;;;;;;;;;4878645;29;20067;-64
2021/06/17 03:25:54;;;;;;;12.82;6.10;;;;;;;;;;4878344;29;20041;-64
2021/06/17 03:28:21;;;;;;;11.85;5.60;;;;;;;;;;4878276;29;20025;-63
2021/06/17 03:30:48;;;;;;;9.80;5.90;;;;;;;;;;4878430;29;20067;-64
2021/06/17 03:33:17;;;;;;;10.52;6.05;;;;;;;;;;4878552;29;20443;-63
2021/06/17 03:35:43;;;;;;;9.95;5.95;;;;;;;;;;4878295;29;20077;-64
2021/06/17 03:38:10;;;;;;;9.82;5.97;;;;;;;;;;4878528;29;20040;-65
2021/06/17 03:40:36;;;;;;;11.82;6.05;;;;;;;;;;4878538;29;20067;-63
2021/06/17 03:43:03;;;;;;;9.30;5.80;;;;;;;;;;4878321;29;20040;-65
2021/06/17 03:45:30;;;;;;;9.00;5.68;;;;;;;;;;4878185;29;20508;-63
2021/06/17 03:47:56;;;;;;;10.77;5.70;;;;;;;;;;4878054;29;20067;-64
2021/06/17 03:50:24;;;;;;;12.45;6.50;;;;;;;;;;4878313;29;20029;-64
2021/06/17 03:52:51;;;;;;;10.80;5.72;;;;;;;;;;4877872;29;20033;-63
2021/06/17 03:55:17;;;;;;;11.75;5.32;;;;;;;;;;4877251;29;20033;-63
2021/06/17 03:57:45;;;;;;;12.38;9.15;;;;;;;;;;4878066;29;20160;-64
2021/06/17 04:00:12;;;;;;;10.07;5.90;;;;;;;;;;4877732;29;20025;-64
2021/06/17 04:02:38;;;;;;;11.63;6.43;;;;;;;;;;4861101;29;20044;-63
2021/06/17 04:05:04;;;;;;;9.07;5.78;;;;;;;;;;4877605;29;20599;-65
2021/06/17 04:07:33;;;;;;;10.88;5.68;;;;;;;;;;4875474;29;20037;-65
2021/06/17 04:10:00;;;;;;;11.32;6.13;;;;;;;;;;4873761;29;20514;-65
2021/06/17 04:12:29;;;;;;;8.43;5.50;;;;;;;;;;4873892;29;20037;-65
2021/06/17 04:14:58;;;;;;;10.90;5.68;;;;;;;;;;4873291;29;20041;-66
2021/06/17 04:17:26;;;;;;;12.75;6.30;;;;;;;;;;4875488;29;20021;-64
2021/06/17 04:19:53;;;;;;;11.20;5.25;;;;;;;;;;4877452;29;20414;-64
2021/06/17 04:22:20;;;;;;;10.85;5.75;;;;;;;;;;4877541;29;20041;-64
2021/06/17 04:24:51;;;;;;;9.95;5.70;;;;;;;;;;4877473;29;20033;-64
2021/06/17 04:27:19;;;;;;;10.50;5.40;;;;;;;;;;4877723;29;20065;-64
2021/06/17 04:29:46;;;;;;;7.88;4.88;;;;;;;;;;4877562;29;20272;-65
2021/06/17 04:32:13;;;;;;;10.57;5.72;;;;;;;;;;4877388;29;20107;-65
2021/06/17 04:34:41;;;;;;;12.55;8.18;;;;;;;;;;4874918;29;20137;-64
2021/06/17 04:37:09;;;;;;;9.80;5.90;;;;;;;;;;4874045;29;20032;-64
2021/06/17 04:39:35;;;;;;;9.68;5.63;;;;;;;;;;4867967;29;20036;-65
2021/06/17 04:42:02;;;;;;;11.52;5.70;;;;;;;;;;4869326;29;20093;-64
2021/06/17 04:44:28;;;;;;;11.23;6.35;;;;;;;;;;4877507;29;20032;-65
2021/06/17 04:46:54;;;;;;;12.85;6.15;;;;;;;;;;4876763;29;20169;-63
2021/06/17 04:49:22;;;;;;;14.18;7.03;;;;;;;;;;4877406;29;20060;-63
2021/06/17 04:51:48;;;;;;;10.18;7.10;;;;;;;;;;4877060;29;20041;-64
2021/06/17 04:54:20;;;;;;;11.75;6.90;;;;;;;;;;4876995;29;20029;-62
2021/06/17 04:56:47;;;;;;;11.18;6.80;;;;;;;;;;4877252;29;20052;-63
2021/06/17 04:59:16;;;;;;;8.60;6.38;;;;;;;;;;4877003;29;20108;-65
2021/06/17 05:01:42;;;;;;;9.93;5.72;;;;;;;;;;4877287;29;20060;-65
2021/06/17 05:04:09;;;;;;;11.23;6.13;;;;;;;;;;4876221;29;20490;-64
2021/06/17 05:06:37;;;;;;;11.75;5.90;;;;;;;;;;4877922;29;20045;-66
2021/06/17 05:11:51;;;;;;;9.30;5.68;;;;;;;;;;4878388;29;20393;-65
2021/06/17 05:14:17;;;;;;;12.18;5.88;;;;;;;;;;4880303;29;20028;-65
2021/06/17 05:16:43;;;;;;;9.57;6.00;;;;;;;;;;4879848;29;20041;-64
2021/06/17 05:19:09;;;;;;;14.73;6.03;;;;;;;;;;4880355;29;20033;-62
2021/06/17 05:21:35;;;;;;;8.43;5.32;;;;;;;;;;4878928;29;20036;-66
2021/06/17 05:24:01;;;;;;;10.20;5.40;;;;;;;;;;4878153;29;20029;-64
2021/06/17 05:26:28;;;;;;;9.07;5.70;;;;;;;;;;4876768;29;20025;-66
2021/06/17 05:28:55;;;;;;;10.55;5.78;;;;;;;;;;4876959;29;20086;-67
2021/06/17 05:31:23;;;;;;;8.43;5.32;;;;;;;;;;4879324;29;20112;-63
2021/06/17 05:33:49;;;;;;;9.82;5.55;;;;;;;;;;4878752;29;20554;-61
2021/06/17 05:36:16;;;;;;;10.05;4.70;;;;;;;;;;4879084;29;20045;-66
2021/06/17 05:38:42;;;;;;;9.63;5.75;;;;;;;;;;4879578;29;20367;-65
2021/06/17 05:41:08;;;;;;;17.52;8.35;;;;;;;;;;4879670;29;20389;-62
2021/06/17 05:43:34;;;;;;;11.27;5.95;;;;;;;;;;4879881;29;20444;-62
2021/06/17 05:46:01;;;;;;;7.85;5.00;;;;;;;;;;4879694;29;20032;-66
2021/06/17 05:48:29;;;;;;;9.82;5.65;;;;;;;;;;4879960;29;20029;-65
2021/06/17 05:50:55;;;;;;;8.68;5.10;;;;;;;;;;4879493;29;20560;-64
2021/06/17 05:53:21;;;;;;;9.57;5.85;;;;;;;;;;4879644;29;20081;-69
2021/06/17 05:55:47;;;;;;;10.43;5.90;;;;;;;;;;4879272;29;20101;-65
2021/06/17 05:58:14;;;;;;;8.57;5.45;;;;;;;;;;4877102;29;20043;-69
2021/06/17 06:00:40;;;;;;;9.60;6.00;;;;;;;;;;4879975;29;20021;-62
2021/06/17 06:03:06;;;;;;;10.75;5.25;;;;;;;;;;4879655;29;20029;-63
2021/06/17 06:05:32;;;;;;;7.65;4.95;;;;;;;;;;4879749;29;20025;-62
2021/06/17 06:08:03;;;;;;;13.15;5.15;;;;;;;;;;4880039;29;20420;-66
2021/06/17 06:10:29;;;;;;;10.35;5.05;;;;;;;;;;4879556;29;20104;-68
2021/06/17 06:12:55;;;;;;;7.88;5.15;;;;;;;;;;4877156;29;20033;-63
2021/06/17 06:15:22;;;;;;;9.00;5.40;;;;;;;;;;4879579;29;20033;-62
2021/06/17 06:17:48;;;;;;;8.95;5.38;;;;;;;;;;4878369;29;20509;-66
2021/06/17 06:20:14;;;;;;;8.82;5.30;;;;;;;;;;4879384;29;20398;-66
2021/06/17 06:22:41;;;;;;;9.93;5.30;;;;;;;;;;4879462;29;20067;-63
2021/06/17 06:25:08;;;;;;;11.82;5.28;;;;;;;;;;4879269;29;20083;-65
2021/06/17 06:27:34;;;;;;;9.50;4.88;;;;;;;;;;4879141;29;20033;-68
2021/06/17 06:30:03;;;;;;;11.80;5.20;;;;;;;;;;4879322;29;20017;-65
2021/06/17 06:32:29;;;;;;;8.63;5.00;;;;;;;;;;4879249;29;21352;-67
2021/06/17 06:34:57;;;;;;;8.98;4.65;;;;;;;;;;4876556;29;20025;-68
2021/06/17 06:37:24;;;;;;;11.80;5.05;;;;;;;;;;4879050;29;20058;-64
2021/06/17 06:39:50;;;;;;;7.82;4.53;;;;;;;;;;4862052;29;20450;-64
2021/06/17 06:42:16;;;;;;;7.72;5.10;;;;;;;;;;4879087;29;20036;-62
2021/06/17 06:44:42;;;;;;;8.75;5.07;;;;;;;;;;4879089;29;20166;-63
2021/06/17 06:47:08;;;;;;;9.23;4.97;;;;;;;;;;4878758;29;20114;-63
2021/06/17 06:49:34;;;;;;;8.85;5.53;;;;;;;;;;4879612;29;20024;-69
2021/06/17 06:52:00;;;;;;;11.93;5.20;;;;;;;;;;4879277;29;20037;-65
2021/06/17 06:54:26;;;;;;;8.60;5.15;;;;;;;;;;4878818;29;20033;-62
2021/06/17 06:56:52;;;;;;;9.88;5.45;;;;;;;;;;4879099;29;20077;-62
2021/06/17 06:59:18;;;;;;;11.90;5.47;;;;;;;;;;4879214;29;20021;-67
2021/06/17 07:01:46;;;;;;;19.05;9.52;;;;;;;;;;4878739;29;20037;-78
2021/06/17 07:04:12;;;;;;;11.48;6.90;;;;;;;;;;4878282;29;20037;-67
2021/06/17 07:06:39;;;;;;;12.10;6.03;;;;;;;;;;4877832;29;20064;-69
2021/06/17 07:09:06;;;;;;;9.82;5.30;;;;;;;;;;4878686;29;20478;-67
2021/06/17 07:11:32;;;;;;;13.15;5.72;;;;;;;;;;4878648;29;20047;-66
2021/06/17 07:13:58;;;;;;;15.32;5.95;;;;;;;;;;4878477;29;20021;-62
2021/06/17 07:16:25;;;;;;;10.05;5.85;;;;;;;;;;4878632;29;20033;-66
2021/06/17 07:18:51;;;;;;;14.38;6.40;;;;;;;;;;4878915;29;20334;-68
2021/06/17 07:21:17;;;;;;;10.32;5.78;;;;;;;;;;4878751;29;20442;-67
2021/06/17 07:23:50;;;;;;;9.45;5.25;;;;;;;;;;4878419;29;20104;-65
2021/06/17 07:26:17;;;;;;;11.02;5.70;;;;;;;;;;4878446;29;20034;-66
2021/06/17 07:28:43;;;;;;;11.48;5.53;;;;;;;;;;4878322;29;20590;-63
2021/06/17 07:31:09;;;;;;;9.23;5.10;;;;;;;;;;4877233;29;20067;-61
2021/06/17 07:33:35;;;;;;;14.27;5.55;;;;;;;;;;4877385;29;20033;-65
2021/06/17 07:36:01;;;;;;;10.82;5.47;;;;;;;;;;4878341;29;20504;-66
2021/06/17 07:38:27;;;;;;;16.05;6.10;;;;;;;;;;4878719;29;20033;-69
2021/06/17 07:40:53;;;;;;;11.70;5.40;;;;;;;;;;4878460;29;20081;-62
2021/06/17 07:43:19;;;;;;;11.15;6.07;;;;;;;;;;4878308;29;20033;-69
2021/06/17 07:45:45;;;;;;;9.90;5.10;;;;;;;;;;4877593;29;20076;-62
2021/06/17 07:48:11;;;;;;;11.30;5.10;;;;;;;;;;4878189;29;20121;-68
2021/06/17 07:50:41;;;;;;;8.45;4.40;;;;;;;;;;4878226;29;20033;-61
2021/06/17 07:53:07;;;;;;;7.88;4.43;;;;;;;;;;4878214;29;20045;-69
2021/06/17 07:55:34;;;;;;;8.98;4.93;;;;;;;;;;4877807;29;20108;-62
2021/06/17 07:58:00;;;;;;;7.85;5.13;;;;;;;;;;4878014;29;20034;-67
2021/06/17 08:00:29;;;;;;;7.95;4.47;;;;;;;;;;4877943;29;20030;-63
2021/06/17 08:02:56;;;;;;;10.52;5.60;;;;;;;;;;4876785;29;20109;-69
2021/06/17 08:05:22;;;;;;;10.57;5.55;;;;;;;;;;4876483;29;20025;-63
2021/06/17 08:07:48;;;;;;;10.25;4.95;;;;;;;;;;4876898;29;20374;-69
2021/06/17 08:10:14;;;;;;;10.45;4.50;;;;;;;;;;4876570;29;20070;-63
2021/06/17 08:12:40;;;;;;;11.23;5.57;;;;;;;;;;4876473;29;20563;-62
2021/06/17 08:15:08;;;;;;;8.93;4.93;;;;;;;;;;4876157;29;20044;-64
2021/06/17 08:17:34;;;;;;;10.32;5.30;;;;;;;;;;4876959;29;20112;-63
2021/06/17 08:20:00;;;;;;;10.95;5.05;;;;;;;;;;4875705;29;20033;-63
2021/06/17 08:22:27;;;;;;;8.25;4.47;;;;;;;;;;4875700;29;20101;-64
2021/06/17 08:24:54;;;;;;;6.00;3.55;;;;;;;;;;4875996;29;20029;-64
2021/06/17 08:27:21;;;;;;;7.57;3.97;;;;;;;;;;4876116;29;20397;-64
2021/06/17 08:29:47;;;;;;;10.18;3.38;;;;;;;;;;4875535;29;20033;-68
2021/06/17 08:32:14;;;;;;;6.22;3.30;;;;;;;;;;4876489;29;20075;-70
2021/06/17 08:34:40;;;;;;;9.80;3.60;;;;;;;;;;4876899;29;20375;-69
2021/06/17 08:37:06;;;;;;;4.70;3.10;;;;;;;;;;4877275;29;20029;-66
2021/06/17 08:39:33;;;;;;;5.75;3.10;;;;;;;;;;4877410;29;20119;-68
2021/06/17 08:41:59;;;;;;;9.02;3.80;;;;;;;;;;4876577;29;20533;-67
2021/06/17 08:44:26;;;;;;;5.07;3.60;;;;;;;;;;4877201;29;20033;-64
2021/06/17 08:46:52;;;;;;;8.68;3.40;;;;;;;;;;4875191;29;20083;-63
2021/06/17 08:49:19;;;;;;;6.32;3.40;;;;;;;;;;4857585;29;20037;-63
2021/06/17 08:51:47;;;;;;;8.25;3.13;;;;;;;;;;4876760;29;20120;-67
2021/06/17 08:54:19;;;;;;;10.20;3.60;;;;;;;;;;4876619;29;20041;-63
2021/06/17 08:56:45;;;;;;;7.47;2.73;;;;;;;;;;4876296;29;20093;-62
2021/06/17 08:59:11;;;;;;;6.70;2.47;;;;;;;;;;4876759;29;20267;-64
2021/06/17 09:01:38;;;;;;;6.57;3.30;;;;;;;;;;4875171;29;20029;-62
2021/06/17 09:04:18;;;;;;;8.35;3.10;;;;;;;;;;4874620;29;20634;-62
2021/06/17 09:06:59;;;;;;;6.70;2.95;;;;;;;;;;4869276;29;20374;-61
2021/06/17 09:09:30;;;;;;;6.90;3.35;;;;;;;;;;4863345;29;20037;-63
2021/06/17 09:11:57;;;;;;;10.05;3.58;;;;;;;;;;4869905;29;20448;-62
2021/06/17 09:14:26;;;;;;;6.82;3.58;;;;;;;;;;4869940;29;20396;-67
2021/06/17 09:17:14;;;;;;;5.63;3.28;;;;;;;;;;4863144;29;20086;-62
2021/06/17 09:29:29;;;;;;;5.55;3.55;;;;;;;;;;4858718;29;20053;-63
2021/06/17 09:31:58;;;;;;;10.05;3.33;;;;;;;;;;4857969;29;20030;-68
2021/06/17 09:34:26;;;;;;;8.55;3.97;;;;;;;;;;4858394;29;20037;-63
2021/06/17 09:37:10;;;;;;;8.18;3.97;;;;;;;;;;4857624;29;20034;-67
2021/06/17 09:45:52;;;;;;;6.13;3.55;;;;;;;;;;4858175;29;20060;-67
2021/06/17 09:48:28;;;;;;;7.57;2.75;;;;;;;;;;4858053;29;20510;-66
2021/06/17 09:50:54;;;;;;;6.80;3.80;;;;;;;;;;4858130;29;20041;-68
2021/06/17 09:53:26;;;;;;;8.02;3.85;;;;;;;;;;4860511;29;20037;-70
2021/06/17 09:55:53;;;;;;;7.30;3.70;;;;;;;;;;4861292;29;20032;-69
2021/06/17 09:58:37;;;;;;;7.63;3.83;;;;;;;;;;4861320;29;20060;-69
2021/06/17 10:01:05;;;;;;;9.05;4.07;;;;;;;;;;4861458;29;20033;-62
2021/06/17 10:03:32;;;;;;;11.60;4.28;;;;;;;;;;4861390;29;20113;-62
2021/06/17 10:05:58;;;;;;;10.07;3.67;;;;;;;;;;4860934;29;20034;-62
2021/06/17 10:08:25;;;;;;;10.18;3.88;;;;;;;;;;4867334;29;20546;-63
2021/06/17 10:10:51;;;;;;;7.25;3.30;;;;;;;;;;4878497;29;20121;-63
2021/06/17 10:13:20;;;;;;;6.80;3.75;;;;;;;;;;4878306;29;20057;-69
2021/06/17 10:15:49;;;;;;;7.60;4.03;;;;;;;;;;4878487;29;20321;-69
2021/06/17 10:18:15;;;;;;;8.25;3.58;;;;;;;;;;4878509;29;20397;-69
2021/06/17 10:20:41;;;;;;;8.20;4.00;;;;;;;;;;4878800;29;20401;-69
2021/06/17 10:23:07;;;;;;;5.05;3.08;;;;;;;;;;4877926;29;20109;-69
2021/06/17 10:25:34;;;;;;;6.82;3.00;;;;;;;;;;4878035;29;20044;-64
2021/06/17 10:28:04;;;;;;;4.45;3.22;;;;;;;;;;4877896;29;20053;-69
2021/06/17 10:30:46;;;;;;;5.75;3.60;;;;;;;;;;4877960;29;20025;-67
2021/06/17 10:33:39;;;;;;;8.85;3.92;;;;;;;;;;4878104;29;20556;-66
2021/06/17 10:36:05;;;;;;;;;;;;;;;;;;4873110;29;20089;-62
2021/06/17 10:38:31;;;;;;;6.60;3.10;;;;;;;;;;4875356;29;19911;-64
2021/06/17 10:40:57;;;;;;;6.47;2.60;;;;;;;;;;4874186;29;20040;-66
2021/06/17 10:43:24;;;;;;;5.82;3.08;;;;;;;;;;4873778;29;20032;-64
2021/06/17 10:45:51;;;;;;;4.93;3.38;;;;;;;;;;4872430;29;20045;-66
2021/06/17 10:48:24;;;;;;;8.95;3.90;;;;;;;;;;4876638;29;20037;-68
2021/06/17 10:50:52;;;;;;;7.72;3.53;;;;;;;;;;4877700;29;20041;-63
2021/06/17 10:53:19;;;;;;;7.15;4.03;;;;;;;;;;4878125;29;20025;-66
2021/06/17 10:55:55;;;;;;;5.45;3.20;;;;;;;;;;4877878;29;20500;-68
2021/06/17 10:58:40;;;;;;;5.90;3.00;;;;;;;;;;4861241;29;20037;-66
2021/06/17 11:01:21;;;;;;;7.75;2.85;;;;;;;;;;4877312;29;20441;-69
2021/06/17 11:03:58;;;;;;;7.90;3.03;;;;;;;;;;4877019;29;20158;-63
2021/06/17 11:06:44;;;;;;;9.02;2.83;;;;;;;;;;4877566;29;20098;-63
2021/06/17 11:09:29;;;;;;;4.13;2.65;;;;;;;;;;4877326;29;20418;-67
2021/06/17 11:11:55;;;;;;;4.80;2.78;;;;;;;;;;4878535;29;20041;-67
2021/06/17 11:14:21;;;;;;;4.68;2.75;;;;;;;;;;4877687;29;20079;-68
2021/06/17 11:16:47;;;;;;;5.20;3.75;;;;;;;;;;4878143;29;20037;-64
2021/06/17 11:19:14;;;;;;;6.10;2.88;;;;;;;;;;4877216;29;20097;-67
2021/06/17 11:21:41;;;;;;;6.57;2.88;;;;;;;;;;4877805;29;20773;-64
2021/06/17 11:24:10;;;;;;;5.85;2.60;;;;;;;;;;4877799;29;20036;-68
2021/06/17 11:26:36;;;;;;;6.60;2.80;;;;;;;;;;4871932;29;20032;-65
2021/06/17 11:29:03;;;;;;;7.35;2.95;;;;;;;;;;4864391;29;20026;-65
2021/06/17 11:31:42;;;;;;;6.45;2.67;;;;;;;;;;4862148;29;20053;-66
2021/06/17 11:34:09;;;;;;;4.78;2.75;;;;;;;;;;4864460;29;20393;-66
2021/06/17 11:36:35;;;;;;;5.57;2.70;;;;;;;;;;4859751;29;20526;-63
2021/06/17 11:39:04;;;;;;;8.60;3.80;;;;;;;;;;4865438;29;20035;-65
2021/06/17 11:41:31;;;;;;;4.57;2.75;;;;;;;;;;4866064;29;20053;-66
2021/06/17 11:43:57;;;;;;;4.30;2.45;;;;;;;;;;4870114;29;20083;-68
2021/06/17 11:46:25;;;;;;;6.53;2.70;;;;;;;;;;4876551;29;20055;-68
2021/06/17 11:48:51;;;;;;;3.25;2.25;;;;;;;;;;4877591;29;20031;-68
2021/06/17 11:51:18;;;;;;;4.43;2.90;;;;;;;;;;4877321;29;20037;-72
2021/06/17 11:53:48;;;;;;;4.40;2.70;;;;;;;;;;4877429;29;20100;-68
2021/06/17 11:56:23;;;;;;;5.63;3.10;;;;;;;;;;4877845;29;20029;-69
2021/06/17 11:58:49;;;;;;;6.13;2.65;;;;;;;;;;4877625;29;20017;-64
2021/06/17 12:01:15;;;;;;;5.85;2.60;;;;;;;;;;4877825;29;20060;-63
2021/06/17 12:03:51;;;;;;;3.28;2.45;;;;;;;;;;4877395;29;20047;-70
2021/06/17 12:06:18;;;;;;;5.57;2.70;;;;;;;;;;4877389;29;20049;-70
2021/06/17 12:08:44;;;;;;;3.47;2.95;;;;;;;;;;4877207;29;20021;-69
2021/06/17 12:11:17;;;;;;;4.95;2.78;;;;;;;;;;4877629;29;20397;-70
2021/06/17 12:13:49;;;;;;;3.92;2.50;;;;;;;;;;4877610;29;20067;-67
2021/06/17 12:16:19;;;;;;;8.25;2.40;;;;;;;;;;4876986;29;20104;-70
2021/06/17 12:18:45;;;;;;;4.18;2.38;;;;;;;;;;4876767;29;20077;-63
2021/06/17 12:21:20;;;;;;;9.52;2.60;;;;;;;;;;4876974;29;20112;-67
2021/06/17 12:23:47;;;;;;;3.65;2.33;;;;;;;;;;4877175;29;20490;-62
2021/06/17 12:26:14;;;;;;;4.57;2.47;;;;;;;;;;4877307;29;20056;-69
2021/06/17 12:28:50;;;;;;;3.47;2.40;;;;;;;;;;4876893;29;20037;-62
2021/06/17 12:31:24;;;;;;;3.85;2.50;;;;;;;;;;4877447;29;20040;-63
2021/06/17 12:33:50;;;;;;;3.33;2.22;;;;;;;;;;4876405;29;20036;-65
2021/06/17 12:36:17;;;;;;;4.28;2.38;;;;;;;;;;4876527;29;20505;-69
2021/06/17 12:38:44;;;;;;;3.75;2.53;;;;;;;;;;4876593;29;20025;-65
2021/06/17 12:41:14;;;;;;;6.00;2.30;;;;;;;;;;4877480;29;20091;-61
2021/06/17 12:43:43;;;;;;;4.13;2.13;;;;;;;;;;4876922;29;20028;-62
2021/06/17 12:46:10;;;;;;;4.65;2.22;;;;;;;;;;4876615;29;20048;-63
2021/06/17 12:54:02;;;;;;;5.22;2.15;;;;;;;;;;4877136;29;20048;-66
2021/06/17 12:56:28;;;;;;;4.95;2.10;;;;;;;;;;4877129;29;20120;-74
2021/06/17 12:58:55;;;;;;;3.38;2.30;;;;;;;;;;4876701;29;20438;-69
2021/06/17 13:01:23;;;;;;;5.70;1.90;;;;;;;;;;4877033;29;20033;-64
2021/06/17 13:03:50;;;;;;;3.63;2.25;;;;;;;;;;4876471;29;20029;-68
2021/06/17 13:06:36;;;;;;;4.47;2.13;;;;;;;;;;4875671;29;20144;-72
2021/06/17 13:09:03;;;;;;;3.88;1.90;;;;;;;;;;4869590;29;20025;-67
2021/06/17 13:11:33;;;;;;;8.65;2.15;;;;;;;;;;4877008;29;20536;-68
2021/06/17 13:14:06;;;;;;;5.53;2.30;;;;;;;;;;4877003;29;20037;-64
2021/06/17 13:16:34;;;;;;;4.95;2.30;;;;;;;;;;4877319;29;20503;-68
2021/06/17 13:19:00;;;;;;;6.30;1.95;;;;;;;;;;4876950;29;20394;-64
2021/06/17 13:21:26;;;;;;;4.90;2.10;;;;;;;;;;4876932;29;20049;-61
2021/06/17 13:23:52;;;;;;;6.22;2.17;;;;;;;;;;4876234;29;20401;-70
2021/06/17 13:26:20;;;;;;;7.00;2.25;;;;;;;;;;4876495;29;20060;-67
2021/06/17 13:28:57;;;;;;;4.15;2.20;;;;;;;;;;4879811;29;20029;-64
2021/06/17 13:31:25;;;;;;;4.45;1.90;;;;;;;;;;4879050;29;20056;-67
2021/06/17 13:33:53;;;;;;;4.75;2.00;;;;;;;;;;4862836;29;20093;-65
2021/06/17 13:36:20;;;;;;;2.20;2.00;;;;;;;;;;4880547;29;20025;-68
2021/06/17 13:38:46;;;;;;;3.83;2.10;;;;;;;;;;4880531;29;20061;-68
2021/06/17 13:41:12;;;;;;;4.05;2.10;;;;;;;;;;4880431;29;20029;-69
2021/06/17 13:43:38;;;;;;;4.47;1.92;;;;;;;;;;4880378;29;20065;-64
2021/06/17 13:46:04;;;;;;;4.55;1.80;;;;;;;;;;4880223;29;20059;-66
2021/06/17 13:48:35;;;;;;;3.90;2.20;;;;;;;;;;4880416;29;20497;-67
2021/06/17 13:51:01;;;;;;;5.90;2.00;;;;;;;;;;4880295;29;20033;-68
2021/06/17 13:53:27;;;;;;;5.50;2.00;;;;;;;;;;4879932;29;20039;-61
2021/06/17 13:55:53;;;;;;;5.72;2.47;;;;;;;;;;4880147;29;20113;-65
2021/06/17 13:58:19;;;;;;;5.05;1.90;;;;;;;;;;4879897;29;20040;-67
2021/06/17 14:00:45;;;;;;;4.82;2.60;;;;;;;;;;4880017;29;20080;-68
2021/06/17 14:03:12;;;;;;;5.97;2.70;;;;;;;;;;4878871;29;20043;-71
2021/06/17 14:05:39;;;;;;;9.40;3.75;;;;;;;;;;4879302;29;20036;-69
2021/06/17 14:08:06;;;;;;;5.32;2.22;;;;;;;;;;4878591;29;20036;-70
2021/06/17 14:10:33;;;;;;;7.90;2.03;;;;;;;;;;4880735;29;20547;-64
2021/06/17 14:13:00;;;;;;;4.30;2.00;;;;;;;;;;4889549;29;20029;-71
2021/06/17 14:15:27;;;;;;;6.70;2.20;;;;;;;;;;4884993;29;20560;-68
2021/06/17 14:17:55;;;;;;;3.88;2.35;;;;;;;;;;4879438;29;20029;-63
2021/06/17 14:20:22;;;;;;;3.65;2.10;;;;;;;;;;4886045;29;20037;-68
2021/06/17 14:22:48;;;;;;;3.72;1.98;;;;;;;;;;4898491;29;20041;-69
2021/06/17 14:25:14;;;;;;;4.72;1.98;;;;;;;;;;4898621;29;20027;-68
2021/06/17 14:27:40;;;;;;;6.00;2.05;;;;;;;;;;4898499;29;20044;-71
2021/06/17 14:30:08;;;;;;;8.32;1.90;;;;;;;;;;4898387;29;20481;-65
2021/06/17 14:32:34;;;;;;;11.20;2.33;;;;;;;;;;4898517;29;20033;-72
2021/06/17 14:35:01;;;;;;;4.45;2.45;;;;;;;;;;4898195;29;20025;-65
2021/06/17 14:37:27;;;;;;;7.30;2.08;;;;;;;;;;4898030;29;20488;-70
2021/06/17 14:39:53;;;;;;;4.18;1.83;;;;;;;;;;4879104;29;20037;-63
2021/06/17 14:42:19;;;;;;;4.35;2.80;;;;;;;;;;4879436;29;20025;-66
2021/06/17 14:44:45;;;;;;;4.50;2.20;;;;;;;;;;4879102;29;20033;-66
2021/06/17 14:47:11;;;;;;;6.13;2.13;;;;;;;;;;4878883;29;20064;-64
2021/06/17 14:49:37;;;;;;;5.50;2.25;;;;;;;;;;4879154;29;20060;-63
2021/06/17 14:52:03;;;;;;;5.20;2.28;;;;;;;;;;4879114;29;20045;-72
2021/06/17 14:54:29;;;;;;;4.72;2.20;;;;;;;;;;4878977;29;20443;-63
2021/06/17 14:56:56;;;;;;;4.28;2.00;;;;;;;;;;4879215;29;20029;-65
2021/06/17 14:59:22;;;;;;;5.07;2.22;;;;;;;;;;4879111;29;20062;-71
2021/06/17 15:01:49;;;;;;;5.95;2.08;;;;;;;;;;4878809;29;20064;-70
2021/06/17 15:04:16;;;;;;;6.03;1.98;;;;;;;;;;4878712;29;20032;-71
2021/06/17 15:06:42;;;;;;;6.63;2.47;;;;;;;;;;4879036;29;20041;-70